Time;durP1;ratioP1;P1;durP2;ratioP2;P2;SDS_P1;SDS_P2;PMS_P1;PMS_P2;Temp;Humidity;BMP_temperature;BMP_pressure;BME280_temperature;BME280_humidity;BME280_pressure;Samples;Min_cycle;Max_cycle;Signal;HPM_P1;HPM_P2
2022/11/19 05:02:20;;;;;;;12.70;7.10;;;8.60;99.90;;;;;;5047163;23;20077;-70
2022/11/19 05:04:46;;;;;;;14.47;7.53;;;8.60;99.90;;;;;;4903504;29;20028;-69
2022/11/19 05:07:11;;;;;;;15.50;8.40;;;8.70;99.90;;;;;;4899267;29;20075;-69
2022/11/19 05:09:37;;;;;;;9.77;6.90;;;8.60;99.90;;;;;;4897816;29;20032;-70
2022/11/19 05:12:03;;;;;;;11.43;7.50;;;8.60;99.90;;;;;;4883310;29;20025;-70
2022/11/19 05:14:28;;;;;;;12.75;8.25;;;8.60;99.90;;;;;;4880893;29;20025;-70
2022/11/19 05:16:54;;;;;;;11.83;7.50;;;8.60;99.90;;;;;;4880269;29;20037;-70
2022/11/19 05:19:19;;;;;;;16.10;8.10;;;8.60;99.90;;;;;;4880064;29;20029;-71
2022/11/19 05:21:45;;;;;;;12.37;7.50;;;8.50;99.90;;;;;;4878974;29;20059;-70
2022/11/19 05:24:10;;;;;;;11.53;8.03;;;8.50;99.90;;;;;;4878829;29;20040;-70
2022/11/19 05:26:36;;;;;;;10.93;8.10;;;8.60;99.90;;;;;;4880130;29;20406;-70
2022/11/19 05:29:01;;;;;;;12.13;7.40;;;8.70;99.90;;;;;;4880377;29;20108;-70
2022/11/19 05:31:27;;;;;;;12.63;7.67;;;8.70;99.90;;;;;;4880204;29;20072;-71
2022/11/19 05:33:52;;;;;;;13.07;7.97;;;8.80;99.90;;;;;;4885303;29;20068;-70
2022/11/19 05:36:18;;;;;;;13.27;7.80;;;8.70;99.90;;;;;;4898668;29;20040;-70
2022/11/19 05:38:43;;;;;;;11.53;7.73;;;8.70;99.90;;;;;;4897392;29;20123;-71
2022/11/19 05:41:09;;;;;;;16.03;7.80;;;8.70;99.90;;;;;;4898490;29;20036;-70
2022/11/19 05:43:34;;;;;;;9.80;7.40;;;8.60;99.90;;;;;;4898366;29;20040;-70
2022/11/19 05:46:01;;;;;;;11.33;7.70;;;8.60;99.90;;;;;;4898556;29;20040;-70
2022/11/19 05:48:27;;;;;;;11.63;7.78;;;8.70;99.90;;;;;;4898182;29;20028;-71
2022/11/19 05:50:52;;;;;;;12.98;7.65;;;8.70;99.90;;;;;;4898643;29;20040;-71
2022/11/19 05:53:18;;;;;;;12.07;7.93;;;8.80;99.90;;;;;;4898032;29;20477;-71
2022/11/19 05:55:43;;;;;;;17.03;8.10;;;8.70;99.90;;;;;;4898660;29;20548;-70
2022/11/19 05:58:09;;;;;;;11.53;7.87;;;8.80;99.90;;;;;;4897240;29;20036;-71
2022/11/19 06:00:34;;;;;;;12.63;8.27;;;8.90;99.90;;;;;;4899983;29;20048;-70
2022/11/19 06:03:00;;;;;;;10.70;8.30;;;8.90;99.90;;;;;;4901273;29;20389;-70
2022/11/19 06:05:26;;;;;;;12.07;7.57;;;8.90;99.90;;;;;;4900625;29;20032;-70
2022/11/19 06:07:51;;;;;;;13.70;8.57;;;9.00;99.90;;;;;;4898746;29;20108;-71
2022/11/19 06:10:17;;;;;;;15.10;7.30;;;8.90;99.90;;;;;;4900316;29;20122;-70
2022/11/19 06:12:43;;;;;;;12.23;7.00;;;8.80;99.90;;;;;;4899863;29;20411;-70
2022/11/19 06:15:09;;;;;;;10.32;7.28;;;8.80;99.90;;;;;;4897543;29;20021;-69
2022/11/19 06:17:34;;;;;;;10.98;7.85;;;8.80;99.90;;;;;;4898128;29;20102;-69
2022/11/19 06:20:00;;;;;;;12.80;7.50;;;8.80;99.90;;;;;;4898637;29;20052;-70
2022/11/19 06:22:26;;;;;;;13.47;7.87;;;8.80;99.90;;;;;;4896768;29;20029;-69
2022/11/19 06:24:51;;;;;;;12.80;7.80;;;8.80;99.90;;;;;;4896234;29;20088;-70
2022/11/19 06:27:17;;;;;;;16.23;8.50;;;8.70;99.90;;;;;;4896302;29;20516;-70
2022/11/19 06:29:42;;;;;;;22.10;8.57;;;8.70;99.90;;;;;;4897506;29;20064;-72
2022/11/19 06:32:08;;;;;;;10.98;7.70;;;8.70;99.90;;;;;;4896643;29;20067;-70
2022/11/19 06:34:33;;;;;;;12.13;8.30;;;8.70;99.90;;;;;;4896378;29;20128;-71
2022/11/19 06:36:59;;;;;;;9.73;7.70;;;8.70;99.90;;;;;;4898288;29;20394;-71
2022/11/19 06:39:25;;;;;;;11.17;8.20;;;8.60;99.90;;;;;;4896922;29;20143;-71
2022/11/19 06:41:50;;;;;;;14.67;8.20;;;8.60;99.90;;;;;;4896703;29;20029;-70
2022/11/19 06:44:16;;;;;;;13.03;7.63;;;8.60;99.90;;;;;;4896754;29;20029;-71
2022/11/19 06:46:41;;;;;;;12.77;7.60;;;8.50;99.90;;;;;;4898010;29;20056;-70
2022/11/19 06:49:08;;;;;;;13.70;7.47;;;8.60;99.90;;;;;;4897801;29;20550;-70
2022/11/19 06:51:34;;;;;;;14.02;7.05;;;8.70;99.90;;;;;;4898013;29;20030;-71
2022/11/19 06:54:00;;;;;;;13.05;7.38;;;8.80;99.90;;;;;;4896670;29;20076;-70
2022/11/19 06:56:25;;;;;;;14.77;7.17;;;8.70;99.90;;;;;;4896576;29;20064;-70
2022/11/19 06:58:55;;;;;;;12.43;7.53;;;8.70;99.90;;;;;;4897687;29;20029;-70
2022/11/19 07:01:20;;;;;;;19.00;8.90;;;8.60;99.90;;;;;;4897765;29;20036;-70
2022/11/19 07:03:46;;;;;;;14.20;8.43;;;8.50;99.90;;;;;;4898650;29;20027;-71
2022/11/19 07:06:12;;;;;;;16.23;8.13;;;8.60;99.90;;;;;;4894580;29;20108;-70
2022/11/19 07:08:38;;;;;;;12.73;8.20;;;8.60;99.90;;;;;;4888624;29;20508;-70
2022/11/19 07:11:24;;;;;;;14.60;8.68;;;8.60;99.90;;;;;;4906048;29;20382;-70
2022/11/19 07:13:56;;;;;;;13.10;8.13;;;8.80;99.90;;;;;;4898379;29;20376;-70
2022/11/19 07:16:30;;;;;;;13.13;8.10;;;8.80;99.90;;;;;;4890634;29;20032;-69
2022/11/19 07:18:58;;;;;;;14.85;8.38;;;8.70;99.90;;;;;;4882349;29;20081;-70
2022/11/19 07:21:23;;;;;;;17.98;9.30;;;8.80;99.90;;;;;;4882866;29;20029;-70
2022/11/19 07:23:49;;;;;;;14.57;8.63;;;8.80;99.90;;;;;;4883539;29;20541;-70
2022/11/19 07:26:14;;;;;;;14.73;9.20;;;8.80;99.90;;;;;;4900081;29;20068;-70
2022/11/19 07:28:40;;;;;;;14.90;9.00;;;8.80;99.90;;;;;;4899881;29;20393;-71
2022/11/19 07:31:07;;;;;;;16.00;8.30;;;8.80;99.90;;;;;;4900909;29;20029;-71
2022/11/19 07:33:34;;;;;;;15.98;9.43;;;8.70;99.90;;;;;;4899755;29;20053;-70
2022/11/19 07:36:01;;;;;;;22.60;9.68;;;8.70;99.90;;;;;;4899486;29;20081;-70
2022/11/19 07:38:27;;;;;;;17.85;9.23;;;8.80;99.90;;;;;;4899327;29;20033;-70
2022/11/19 07:40:56;;;;;;;14.70;8.50;;;8.80;99.90;;;;;;4898841;29;20090;-71
2022/11/19 07:43:22;;;;;;;16.23;8.25;;;8.80;99.90;;;;;;4899402;29;20124;-70
2022/11/19 07:45:47;;;;;;;13.88;9.07;;;8.90;99.90;;;;;;4899524;29;20405;-72
2022/11/19 07:48:14;;;;;;;14.37;8.03;;;8.90;99.90;;;;;;4900714;29;20149;-71
2022/11/19 07:50:40;;;;;;;;;;;8.90;99.90;;;;;;4899677;29;20031;-71
2022/11/19 07:53:06;;;;;;;13.10;8.48;;;8.90;99.90;;;;;;4899889;29;20296;-72
2022/11/19 07:55:32;;;;;;;19.38;10.82;;;8.90;99.90;;;;;;4899491;29;20060;-71
2022/11/19 07:57:57;;;;;;;28.02;11.82;;;8.90;99.90;;;;;;4900649;29;20047;-71
2022/11/19 08:00:23;;;;;;;16.53;8.77;;;9.00;99.90;;;;;;4895588;29;20028;-70
2022/11/19 08:02:49;;;;;;;17.10;8.30;;;9.10;99.90;;;;;;4892399;29;20037;-72
2022/11/19 08:05:15;;;;;;;15.32;8.73;;;9.10;99.90;;;;;;4896631;29;20028;-72
2022/11/19 08:07:41;;;;;;;14.90;8.55;;;9.00;99.90;;;;;;4899862;29;20462;-69
2022/11/19 08:10:08;;;;;;;11.07;7.25;;;9.00;99.90;;;;;;4889803;29;20072;-70
2022/11/19 08:12:34;;;;;;;12.02;7.82;;;8.90;99.90;;;;;;4880315;29;20033;-69
2022/11/19 08:14:59;;;;;;;15.57;7.57;;;8.80;99.90;;;;;;4881660;29;20085;-68
2022/11/19 08:20:09;;;;;;;8.88;5.90;;;9.10;99.90;;;;;;4881363;29;20089;-71
2022/11/19 08:22:35;;;;;;;11.93;6.45;;;9.10;99.90;;;;;;4881346;29;20041;-68
2022/11/19 08:25:05;;;;;;;;;;;9.10;99.90;;;;;;4879884;29;20395;-68
2022/11/19 08:27:30;;;;;;;8.82;5.63;;;9.20;99.90;;;;;;4881057;29;20440;-69
2022/11/19 08:29:56;;;;;;;14.35;6.40;;;9.10;99.90;;;;;;4880701;29;20063;-71
2022/11/19 08:32:22;;;;;;;11.53;4.77;;;9.20;99.90;;;;;;4881286;29;20037;-74
2022/11/19 08:34:47;;;;;;;9.10;4.90;;;9.20;99.90;;;;;;4897349;29;20112;-70
2022/11/19 08:37:13;;;;;;;10.17;5.20;;;9.20;99.90;;;;;;4914202;29;20040;-69
2022/11/19 08:39:39;;;;;;;9.77;5.30;;;9.20;99.90;;;;;;4899942;29;20068;-72
2022/11/19 08:44:50;;;;;;;11.30;5.60;;;9.20;99.90;;;;;;4884792;29;20400;-71
2022/11/19 08:47:15;;;;;;;8.10;4.70;;;9.10;99.90;;;;;;4899742;29;20119;-71
2022/11/19 08:49:41;;;;;;;12.23;4.88;;;9.20;99.90;;;;;;4898100;29;20622;-72
2022/11/19 08:52:07;;;;;;;9.90;5.57;;;9.20;99.90;;;;;;4899427;29;20446;-70
2022/11/19 08:54:32;;;;;;;14.13;6.67;;;9.20;99.90;;;;;;4901675;29;20132;-70
2022/11/19 08:56:58;;;;;;;8.73;4.80;;;9.20;99.90;;;;;;4899500;29;20032;-75
2022/11/19 08:59:23;;;;;;;10.60;5.80;;;9.40;99.90;;;;;;4899513;29;20032;-71
2022/11/19 09:01:49;;;;;;;11.93;6.23;;;9.40;99.90;;;;;;4899723;29;20504;-72
2022/11/19 09:04:15;;;;;;;10.77;4.63;;;9.50;99.90;;;;;;4899269;29;20029;-73
2022/11/19 09:06:41;;;;;;;10.20;5.40;;;9.30;99.90;;;;;;4899057;29;20032;-72
2022/11/19 09:09:07;;;;;;;9.37;5.03;;;9.40;99.90;;;;;;4898415;29;20031;-72
2022/11/19 09:11:33;;;;;;;;;;;9.50;99.90;;;;;;4899353;29;20529;-71
2022/11/19 09:13:59;;;;;;;7.97;4.50;;;9.60;99.90;;;;;;4899296;29;19994;-69
2022/11/19 09:16:25;;;;;;;15.70;5.30;;;9.60;99.90;;;;;;4899597;29;20032;-72
2022/11/19 09:18:51;;;;;;;9.80;4.72;;;9.70;99.90;;;;;;4898172;29;20375;-71
2022/11/19 09:21:16;;;;;;;11.00;5.57;;;9.80;99.90;;;;;;4898143;29;20116;-71
2022/11/19 09:23:42;;;;;;;13.00;5.50;;;9.80;99.90;;;;;;4900648;29;20024;-71
2022/11/19 09:26:11;;;;;;;10.53;5.43;;;9.80;99.90;;;;;;4902230;29;20024;-71
2022/11/19 09:28:37;;;;;;;13.57;6.38;;;9.50;99.90;;;;;;4900149;29;20028;-70
2022/11/19 09:31:04;;;;;;;12.90;6.60;;;9.40;99.90;;;;;;4899816;29;20470;-71
2022/11/19 09:33:31;;;;;;;11.15;6.05;;;9.40;99.90;;;;;;4900074;29;20025;-70
2022/11/19 09:35:57;;;;;;;12.10;5.90;;;9.30;99.90;;;;;;4899493;29;20080;-70
2022/11/19 09:38:22;;;;;;;9.90;5.57;;;9.30;99.90;;;;;;4899526;29;20028;-71
2022/11/19 09:40:54;;;;;;;8.73;5.57;;;9.40;99.90;;;;;;4898915;29;20035;-73
2022/11/19 09:43:38;;;;;;;12.82;5.88;;;9.40;99.90;;;;;;4899642;29;20024;-72
2022/11/19 09:46:25;;;;;;;10.13;5.45;;;9.40;99.90;;;;;;4906605;29;20047;-73
2022/11/19 09:48:54;;;;;;;8.73;5.20;;;9.50;99.90;;;;;;4900122;29;20108;-72
2022/11/19 09:51:28;;;;;;;8.13;5.40;;;9.60;99.90;;;;;;4899076;29;20040;-72
2022/11/19 09:53:59;;;;;;;10.88;5.82;;;9.60;99.90;;;;;;4896161;29;20057;-71
2022/11/19 09:56:40;;;;;;;9.52;4.70;;;9.60;99.90;;;;;;4898951;29;20044;-72
2022/11/19 09:59:37;;;;;;;11.80;4.90;;;9.60;99.90;;;;;;4900375;29;20092;-73
2022/11/19 10:02:16;;;;;;;11.73;5.28;;;9.50;99.90;;;;;;4899884;29;20058;-72
2022/11/19 10:04:43;;;;;;;9.50;5.03;;;9.50;99.90;;;;;;4901527;29;20029;-73
2022/11/19 10:07:38;;;;;;;8.27;4.95;;;9.50;99.90;;;;;;4906723;29;20027;-73
2022/11/19 10:10:35;;;;;;;11.02;4.72;;;9.50;99.90;;;;;;4905036;29;20076;-74
2022/11/19 10:13:26;;;;;;;11.27;4.97;;;9.50;99.90;;;;;;4901736;29;20021;-73
2022/11/19 10:16:20;;;;;;;7.93;3.90;;;9.40;99.90;;;;;;4902457;29;20088;-73
2022/11/19 10:18:52;;;;;;;7.90;4.20;;;9.40;99.90;;;;;;4906986;29;20048;-72
2022/11/19 10:21:30;;;;;;;7.50;4.05;;;9.40;99.90;;;;;;4907023;29;20509;-72
2022/11/19 10:24:20;;;;;;;5.80;3.78;;;9.30;99.90;;;;;;4906969;29;20036;-72
2022/11/19 10:27:01;;;;;;;10.52;6.60;;;9.30;99.90;;;;;;4904882;29;20025;-73
2022/11/19 10:29:36;;;;;;;7.10;3.83;;;9.30;99.90;;;;;;4902077;29;20032;-73
2022/11/19 10:32:24;;;;;;;11.32;3.92;;;9.30;99.90;;;;;;4890979;29;20055;-75
2022/11/19 10:34:56;;;;;;;8.55;4.07;;;9.20;99.90;;;;;;4881940;29;20036;-73
2022/11/19 10:37:24;;;;;;;9.65;4.28;;;9.30;99.90;;;;;;4881097;29;20375;-68
2022/11/19 10:40:01;;;;;;;9.73;4.25;;;9.30;99.90;;;;;;4881425;29;20041;-69
2022/11/19 10:42:38;;;;;;;7.50;3.70;;;9.30;99.90;;;;;;4883863;29;20494;-67
2022/11/19 10:45:20;;;;;;;10.05;4.00;;;9.40;99.90;;;;;;4894324;29;20077;-67
2022/11/19 10:47:51;;;;;;;8.57;3.58;;;9.40;99.90;;;;;;4900971;29;20059;-70
2022/11/19 10:50:20;;;;;;;9.23;3.78;;;9.50;99.90;;;;;;4904022;29;20504;-70
2022/11/19 10:52:53;;;;;;;8.05;3.65;;;9.50;99.90;;;;;;4907094;29;20084;-68
2022/11/19 10:55:38;;;;;;;8.73;4.25;;;9.50;99.90;;;;;;4904830;29;20112;-68
2022/11/19 10:58:17;;;;;;;6.78;3.33;;;9.40;99.90;;;;;;4900860;29;20101;-68
2022/11/19 11:00:43;;;;;;;8.27;3.90;;;9.40;99.90;;;;;;4901933;29;20033;-68
2022/11/19 11:03:25;;;;;;;7.78;4.30;;;9.40;99.90;;;;;;4902916;29;20032;-69
2022/11/19 11:06:04;;;;;;;8.63;4.55;;;9.40;99.90;;;;;;4901263;29;20095;-69
2022/11/19 11:08:30;;;;;;;8.35;4.03;;;9.40;99.90;;;;;;4901769;29;20028;-69
2022/11/19 11:10:55;;;;;;;7.90;4.03;;;9.40;99.90;;;;;;4916832;29;20036;-69
2022/11/19 11:16:19;;;;;;;6.07;3.53;;;9.50;99.90;;;;;;4939659;23;20069;-71
2022/11/19 11:18:46;;;;;;;8.93;4.40;;;9.40;99.90;;;;;;4919363;29;20024;-71
2022/11/19 11:21:31;;;;;;;8.55;4.00;;;9.50;99.90;;;;;;4920843;29;20029;-72
2022/11/19 11:23:58;;;;;;;8.02;4.20;;;9.60;99.90;;;;;;4901525;29;20025;-71
2022/11/19 11:26:26;;;;;;;10.57;4.57;;;9.70;99.90;;;;;;4900526;29;20029;-69
2022/11/19 11:29:01;;;;;;;7.05;4.05;;;9.70;99.90;;;;;;4900367;29;20029;-68
2022/11/19 11:31:36;;;;;;;8.27;4.20;;;9.70;99.90;;;;;;4901416;29;20058;-70
2022/11/19 11:34:03;;;;;;;6.97;3.50;;;9.80;99.90;;;;;;4905874;29;20024;-69
2022/11/19 11:36:32;;;;;;;8.65;3.58;;;9.80;99.90;;;;;;4901321;29;20477;-70
2022/11/19 11:39:00;;;;;;;8.27;3.80;;;9.90;99.90;;;;;;4899952;29;20097;-70
2022/11/19 11:41:32;;;;;;;9.35;4.10;;;9.90;99.90;;;;;;4910182;29;20036;-70
2022/11/19 11:44:01;;;;;;;7.90;3.63;;;9.90;99.90;;;;;;4920228;29;20024;-71
2022/11/19 11:46:43;;;;;;;9.13;4.22;;;9.90;99.90;;;;;;4920022;29;20103;-70
2022/11/19 11:49:30;;;;;;;8.07;3.28;;;9.90;99.90;;;;;;4920533;29;20421;-69
2022/11/19 11:52:01;;;;;;;10.20;3.72;;;10.00;99.90;;;;;;4918988;29;20020;-71
2022/11/19 11:54:27;;;;;;;8.25;5.25;;;9.90;99.90;;;;;;4920795;29;20021;-71
2022/11/19 11:56:52;;;;;;;7.40;3.93;;;9.90;99.90;;;;;;4919967;29;20473;-71
2022/11/19 11:59:31;;;;;;;5.77;3.60;;;9.90;99.90;;;;;;4920703;29;20032;-72
2022/11/19 12:02:05;;;;;;;9.43;5.68;;;9.80;99.90;;;;;;4918620;29;20067;-71
2022/11/19 12:04:32;;;;;;;8.57;4.47;;;9.80;99.90;;;;;;4920664;29;20043;-70
2022/11/19 12:07:01;;;;;;;15.13;4.88;;;9.90;99.90;;;;;;4921643;29;20055;-69
2022/11/19 12:09:40;;;;;;;6.90;3.50;;;9.90;99.90;;;;;;4920155;29;20062;-70
2022/11/19 12:12:31;;;;;;;12.20;6.45;;;9.90;99.90;;;;;;4919083;29;20449;-69
2022/11/19 12:14:57;;;;;;;6.82;2.60;;;9.80;99.90;;;;;;4919575;29;20040;-72
2022/11/19 12:17:48;;;;;;;9.45;3.45;;;9.90;99.90;;;;;;4919453;29;20032;-69
2022/11/19 12:20:41;;;;;;;12.40;6.03;;;9.80;99.90;;;;;;4919451;29;20032;-71
2022/11/19 12:23:44;;;;;;;8.02;3.60;;;9.80;99.90;;;;;;4919720;29;20064;-70
2022/11/19 12:26:30;;;;;;;9.30;3.88;;;9.90;99.90;;;;;;4919368;29;20028;-71
2022/11/19 12:29:13;;;;;;;8.63;3.67;;;9.90;99.90;;;;;;4921525;29;20103;-69
2022/11/19 12:32:03;;;;;;;6.47;3.28;;;10.00;99.90;;;;;;4917365;29;20055;-71
2022/11/19 12:34:50;;;;;;;7.43;3.20;;;10.20;99.90;;;;;;4901126;29;20025;-71
2022/11/19 12:37:44;;;;;;;7.05;3.45;;;10.10;99.90;;;;;;4912549;29;20024;-71
2022/11/19 12:40:12;;;;;;;6.90;2.92;;;10.20;99.90;;;;;;4908505;29;20025;-71
2022/11/19 12:42:46;;;;;;;9.07;3.03;;;10.10;99.90;;;;;;4900365;29;20049;-71
2022/11/19 12:45:36;;;;;;;8.75;3.78;;;10.20;99.90;;;;;;4930001;29;20059;-73
2022/11/19 12:48:23;;;;;;;5.93;2.90;;;10.20;99.90;;;;;;4899207;29;20482;-71
2022/11/19 12:51:02;;;;;;;8.63;3.40;;;10.00;99.90;;;;;;4898811;29;20025;-71
2022/11/19 12:53:40;;;;;;;8.80;3.53;;;10.10;99.90;;;;;;4930224;29;20032;-72
2022/11/19 12:56:25;;;;;;;7.13;3.15;;;10.20;99.90;;;;;;4903430;29;20160;-71
2022/11/19 12:59:15;;;;;;;4.68;2.78;;;10.30;99.90;;;;;;4902554;29;20418;-72
2022/11/19 13:01:44;;;;;;;7.50;3.20;;;10.30;99.90;;;;;;4901122;29;20033;-72
2022/11/19 13:04:13;;;;;;;7.38;3.10;;;10.30;99.90;;;;;;4898608;29;20180;-71
2022/11/19 13:06:48;;;;;;;9.60;3.70;;;10.30;99.90;;;;;;4899754;29;20035;-71
2022/11/19 13:09:21;;;;;;;6.20;2.90;;;10.40;99.90;;;;;;4899842;29;20358;-70
2022/11/19 13:11:52;;;;;;;5.45;3.10;;;10.40;99.90;;;;;;4897941;29;20036;-72
2022/11/19 13:14:38;;;;;;;6.63;3.03;;;10.40;99.90;;;;;;4898046;29;20029;-72
2022/11/19 13:17:08;;;;;;;5.35;3.10;;;10.40;99.90;;;;;;4899423;29;20028;-72
2022/11/19 13:19:37;;;;;;;7.65;3.28;;;10.50;99.90;;;;;;4899567;29;20370;-72
2022/11/19 13:22:17;;;;;;;7.63;3.55;;;10.50;99.90;;;;;;4901846;29;20084;-72
2022/11/19 13:24:49;;;;;;;9.65;4.80;;;10.50;99.90;;;;;;4900795;29;20419;-71
2022/11/19 13:27:19;;;;;;;8.65;5.68;;;10.40;99.90;;;;;;4899126;29;20036;-70
2022/11/19 13:29:57;;;;;;;10.38;7.10;;;10.10;99.90;;;;;;4918125;29;20024;-72
2022/11/19 13:32:32;;;;;;;11.63;8.98;;;9.80;99.90;;;;;;4918616;29;20445;-73
2022/11/19 13:35:19;;;;;;;11.68;9.45;;;9.60;99.90;;;;;;4916977;29;20032;-73
2022/11/19 13:38:11;;;;;;;14.75;9.85;;;9.30;99.90;;;;;;4918184;29;20079;-72
2022/11/19 13:40:47;;;;;;;12.50;8.80;;;9.00;99.90;;;;;;4916795;29;20043;-70
2022/11/19 13:46:24;;;;;;;13.38;9.02;;;8.80;99.90;;;;;;4918059;29;20050;-69
2022/11/19 13:49:02;;;;;;;12.10;9.02;;;8.70;99.90;;;;;;4919314;29;20020;-74
2022/11/19 13:51:48;;;;;;;22.00;14.88;;;8.60;99.90;;;;;;4918182;29;20020;-74
2022/11/19 13:54:32;;;;;;;14.68;8.60;;;8.60;99.90;;;;;;4918331;29;20107;-74
2022/11/19 13:56:58;;;;;;;10.75;7.85;;;8.50;99.90;;;;;;4917158;29;20114;-74
2022/11/19 13:59:43;;;;;;;9.35;6.28;;;8.50;99.90;;;;;;4918236;29;20028;-75
2022/11/19 14:02:26;;;;;;;10.13;6.53;;;8.40;99.90;;;;;;4916169;29;20482;-73
2022/11/19 14:05:10;;;;;;;9.15;5.90;;;8.20;99.90;;;;;;4916213;29;20037;-73
2022/11/19 14:07:57;;;;;;;9.57;5.97;;;8.20;99.90;;;;;;4917020;29;20028;-73
2022/11/19 14:10:55;;;;;;;9.65;6.88;;;8.10;99.90;;;;;;4917934;29;20028;-72
2022/11/19 14:13:37;;;;;;;8.18;6.57;;;7.90;99.90;;;;;;4896164;29;20037;-73
2022/11/19 14:27:24;;;;;;;8.25;5.78;;;7.60;99.90;;;;;;4898622;29;20036;-73
2022/11/19 14:30:12;;;;;;;11.45;6.53;;;7.60;99.90;;;;;;4897124;29;20097;-72
2022/11/19 14:32:43;;;;;;;7.63;5.78;;;7.60;99.90;;;;;;4898089;29;20057;-72
2022/11/19 14:35:24;;;;;;;8.52;5.55;;;7.50;99.90;;;;;;4910887;29;20024;-73
2022/11/19 14:38:29;;;;;;;9.60;5.60;;;7.50;99.90;;;;;;4917567;29;20529;-73
2022/11/19 14:41:03;;;;;;;8.85;6.30;;;7.40;99.90;;;;;;4914456;29;20482;-72
2022/11/19 14:46:12;;;;;;;8.98;6.70;;;7.30;99.90;;;;;;4916791;29;20497;-72
2022/11/19 14:48:38;;;;;;;7.67;6.10;;;7.30;99.90;;;;;;4916257;29;20024;-71
2022/11/19 14:51:27;;;;;;;10.50;6.87;;;7.20;99.90;;;;;;4917053;29;20055;-71
2022/11/19 14:54:14;;;;;;;9.52;6.82;;;7.10;99.90;;;;;;4917242;29;20028;-71
2022/11/19 14:56:44;;;;;;;11.55;7.82;;;7.10;99.90;;;;;;4917491;29;20075;-70
2022/11/19 14:59:20;;;;;;;17.90;11.05;;;7.10;99.90;;;;;;4931501;29;20032;-70
2022/11/19 15:02:04;;;;;;;11.18;8.35;;;7.20;99.90;;;;;;4916678;29;20059;-71
2022/11/19 15:04:34;;;;;;;12.40;7.95;;;7.30;99.90;;;;;;4916818;29;20485;-70
2022/11/19 15:07:01;;;;;;;12.35;8.65;;;7.30;99.90;;;;;;4917769;29;20422;-72
2022/11/19 15:10:02;;;;;;;14.38;8.88;;;7.20;99.90;;;;;;4917553;29;20111;-70
2022/11/19 15:12:47;;;;;;;12.05;8.00;;;7.10;99.90;;;;;;4917048;29;20496;-71
2022/11/19 15:15:32;;;;;;;12.73;8.80;;;7.10;99.90;;;;;;4916403;29;20036;-70
2022/11/19 15:18:14;;;;;;;10.30;8.18;;;7.10;99.90;;;;;;4917175;29;20032;-70
2022/11/19 15:21:18;;;;;;;12.73;9.07;;;7.10;99.90;;;;;;4916716;29;20044;-70
2022/11/19 15:23:56;;;;;;;11.93;8.25;;;7.10;99.90;;;;;;4894026;29;20042;-71
2022/11/19 15:26:46;;;;;;;11.20;8.18;;;7.10;99.90;;;;;;4915350;29;20032;-71
2022/11/19 15:29:46;;;;;;;12.05;8.18;;;7.30;99.90;;;;;;4917240;29;20020;-70
2022/11/19 15:32:46;;;;;;;11.30;8.35;;;7.00;99.90;;;;;;4915315;29;20035;-71
2022/11/19 15:35:51;;;;;;;11.95;8.48;;;7.10;99.90;;;;;;4918154;29;20450;-71
2022/11/19 15:38:23;;;;;;;11.95;8.65;;;7.10;99.90;;;;;;4920544;29;20070;-71
2022/11/19 15:40:53;;;;;;;12.75;8.18;;;7.20;99.90;;;;;;4919983;29;20111;-70
2022/11/19 15:43:27;;;;;;;12.20;8.95;;;7.20;99.90;;;;;;4920218;29;20509;-70
2022/11/19 15:46:18;;;;;;;13.63;9.70;;;7.20;99.90;;;;;;4920200;29;20034;-71
2022/11/19 15:49:08;;;;;;;15.38;9.75;;;7.00;99.90;;;;;;4924737;29;20024;-72
2022/11/19 15:51:46;;;;;;;12.85;9.68;;;7.00;99.90;;;;;;4921607;29;20028;-71
2022/11/19 15:54:11;;;;;;;15.18;10.77;;;7.00;99.90;;;;;;4921503;29;20020;-71
2022/11/19 15:56:39;;;;;;;16.10;10.97;;;6.90;99.90;;;;;;4921891;29;20032;-71
2022/11/19 15:59:08;;;;;;;14.15;10.52;;;6.90;99.90;;;;;;4920694;29;20059;-71
2022/11/19 16:01:34;;;;;;;13.98;10.77;;;6.90;99.90;;;;;;4920128;29;20039;-71
2022/11/19 16:04:12;;;;;;;18.15;11.20;;;6.70;99.90;;;;;;4919894;29;20079;-71
2022/11/19 16:06:38;;;;;;;13.38;10.05;;;6.70;99.90;;;;;;4919886;29;20035;-70
2022/11/19 16:09:04;;;;;;;13.88;9.68;;;6.80;99.90;;;;;;4920000;29;20024;-71
2022/11/19 16:17:35;;;;;;;13.82;10.43;;;6.90;99.90;;;;;;4928734;29;20076;-72
2022/11/19 16:20:10;;;;;;;11.40;8.63;;;6.70;99.90;;;;;;4905828;29;20025;-70
2022/11/19 16:22:40;;;;;;;12.35;9.50;;;6.70;99.90;;;;;;4925216;29;20028;-69
2022/11/19 16:25:33;;;;;;;14.15;10.02;;;6.80;99.90;;;;;;4919353;29;20076;-71
2022/11/19 16:28:06;;;;;;;10.85;8.02;;;6.90;99.90;;;;;;4914143;29;20043;-71
2022/11/19 16:31:03;;;;;;;12.63;8.98;;;6.80;99.90;;;;;;4918227;29;20032;-71
2022/11/19 16:33:31;;;;;;;11.13;8.30;;;6.80;99.90;;;;;;4881348;29;20060;-71
2022/11/19 16:36:23;;;;;;;10.70;7.95;;;6.80;99.90;;;;;;4880863;29;20025;-72
2022/11/19 16:38:50;;;;;;;10.10;7.78;;;6.60;99.90;;;;;;4875895;29;20115;-71
2022/11/19 16:44:13;;;;;;;10.05;7.93;;;6.70;99.90;;;;;;4879837;29;20541;-72
2022/11/19 16:46:39;;;;;;;9.88;7.10;;;6.60;99.90;;;;;;4878402;29;20045;-71
2022/11/19 16:49:28;;;;;;;10.68;8.07;;;6.60;99.90;;;;;;4863852;29;20084;-72
2022/11/19 16:51:54;;;;;;;12.15;8.13;;;6.50;99.90;;;;;;4879448;29;20029;-72
2022/11/19 16:54:41;;;;;;;12.70;8.82;;;6.60;99.90;;;;;;4863799;29;20093;-72
2022/11/19 16:57:08;;;;;;;11.52;8.10;;;6.70;99.90;;;;;;4885563;29;20115;-73
2022/11/19 16:59:33;;;;;;;100.22;67.68;;;6.60;99.90;;;;;;4863789;29;20029;-73
2022/11/19 17:01:59;;;;;;;10.40;7.75;;;6.60;99.90;;;;;;4879621;29;20104;-73
2022/11/19 17:04:30;;;;;;;9.33;7.40;;;6.60;99.90;;;;;;4863379;29;20025;-73
2022/11/19 17:06:57;;;;;;;9.80;7.32;;;6.70;99.90;;;;;;4878877;29;20033;-73
2022/11/19 17:09:43;;;;;;;9.77;7.40;;;6.70;99.90;;;;;;4878846;29;20064;-74
2022/11/19 17:12:26;;;;;;;9.60;7.63;;;6.90;99.90;;;;;;4919178;29;20060;-74
2022/11/19 17:14:57;;;;;;;11.82;8.15;;;6.90;99.90;;;;;;4918825;29;20119;-74
2022/11/19 17:17:33;;;;;;;12.68;8.88;;;6.90;99.90;;;;;;4932294;23;20105;-73
2022/11/19 17:19:58;;;;;;;13.93;8.90;;;6.70;99.90;;;;;;4879459;29;20025;-72
2022/11/19 17:22:34;;;;;;;12.47;9.20;;;6.70;99.90;;;;;;4895257;29;20438;-73
2022/11/19 17:25:03;;;;;;;12.30;8.70;;;6.70;99.90;;;;;;4880750;29;20040;-72
2022/11/19 17:27:33;;;;;;;13.00;9.80;;;6.80;99.90;;;;;;4890384;29;20025;-71
2022/11/19 17:30:17;;;;;;;13.93;9.98;;;6.80;99.90;;;;;;4861978;29;20034;-72
2022/11/19 17:32:47;;;;;;;13.52;9.98;;;6.80;99.90;;;;;;4843297;29;20057;-72
2022/11/19 17:35:34;;;;;;;18.02;11.43;;;6.80;99.90;;;;;;4857989;29;20037;-72
2022/11/19 17:38:13;;;;;;;16.70;10.50;;;6.70;99.90;;;;;;4872106;29;20033;-72
2022/11/19 17:40:49;;;;;;;19.05;12.65;;;6.80;99.90;;;;;;4859245;29;20030;-71
2022/11/19 17:46:03;;;;;;;17.58;11.68;;;6.80;99.90;;;;;;4865376;29;20094;-71
2022/11/19 17:48:29;;;;;;;17.10;10.90;;;6.70;99.90;;;;;;4876694;29;20029;-72
2022/11/19 17:50:54;;;;;;;18.43;13.00;;;6.50;99.90;;;;;;4860867;29;20100;-72
2022/11/19 17:53:21;;;;;;;16.63;11.00;;;6.30;99.90;;;;;;4860272;29;20033;-73
2022/11/19 17:55:50;;;;;;;15.02;10.00;;;6.30;99.90;;;;;;4860480;29;20029;-72
2022/11/19 17:58:16;;;;;;;14.88;9.90;;;6.30;99.90;;;;;;4859390;29;20501;-71
2022/11/19 18:00:41;;;;;;;15.80;9.57;;;6.50;99.90;;;;;;4860309;29;20037;-71
2022/11/19 18:03:11;;;;;;;14.60;9.53;;;6.60;99.90;;;;;;4859949;29;20029;-71
2022/11/19 18:05:38;;;;;;;16.00;10.18;;;6.60;99.90;;;;;;4861374;29;20025;-71
2022/11/19 18:08:04;;;;;;;15.75;9.88;;;6.60;99.90;;;;;;4859916;29;20124;-71
2022/11/19 18:10:30;;;;;;;16.47;10.50;;;6.50;99.90;;;;;;4860095;29;20075;-72
2022/11/19 18:12:55;;;;;;;14.73;9.93;;;6.40;99.90;;;;;;4875809;29;20048;-73
2022/11/19 18:15:21;;;;;;;14.00;9.50;;;6.40;99.90;;;;;;4861906;29;20029;-72
2022/11/19 18:17:46;;;;;;;18.60;10.23;;;6.40;99.90;;;;;;4861106;29;20038;-72
2022/11/19 18:20:12;;;;;;;13.93;10.00;;;6.40;99.90;;;;;;4861660;29;20120;-71
2022/11/19 18:22:38;;;;;;;16.95;10.70;;;6.40;99.90;;;;;;4861471;29;20120;-71
2022/11/19 18:25:16;;;;;;;17.77;11.25;;;6.40;99.90;;;;;;4861391;29;20061;-71
2022/11/19 18:27:42;;;;;;;17.65;13.13;;;6.30;99.90;;;;;;4860432;29;20387;-71
2022/11/19 18:30:08;;;;;;;19.35;11.65;;;6.30;99.90;;;;;;4860259;29;20085;-71
2022/11/19 18:32:33;;;;;;;16.00;11.60;;;6.50;99.90;;;;;;4859983;29;20054;-71
2022/11/19 18:34:59;;;;;;;16.33;11.27;;;6.40;99.90;;;;;;4860747;29;20069;-71
2022/11/19 18:37:25;;;;;;;15.50;11.23;;;6.50;99.90;;;;;;4859779;29;20132;-71
2022/11/19 18:39:52;;;;;;;14.83;10.20;;;6.30;99.90;;;;;;4856195;29;20574;-72
2022/11/19 18:42:17;;;;;;;15.38;10.48;;;6.20;99.90;;;;;;4842503;29;20022;-70
2022/11/19 18:44:46;;;;;;;15.83;10.37;;;6.40;99.90;;;;;;4843379;29;20102;-72
2022/11/19 18:47:13;;;;;;;13.77;9.82;;;6.50;99.90;;;;;;4861275;29;20032;-73
2022/11/19 18:49:40;;;;;;;15.48;10.90;;;6.40;99.90;;;;;;4860877;29;20035;-72
2022/11/19 18:52:08;;;;;;;18.02;11.95;;;6.50;99.90;;;;;;4875160;29;20467;-73
2022/11/19 18:54:33;;;;;;;16.10;11.68;;;6.50;99.90;;;;;;4875681;29;20034;-72